sensor_id;sensor_type;location;lat;lon;timestamp;P1;durP1;ratioP1;P2;durP2;ratioP2
81056;SDS011;70563;50.084;14.468;2024-01-15T00:00:09;16.45;;;8.00;;
81056;SDS011;70563;50.084;14.468;2024-01-15T00:02:35;15.85;;;7.90;;
81056;SDS011;70563;50.084;14.468;2024-01-15T00:05:00;14.05;;;5.78;;
81056;SDS011;70563;50.084;14.468;2024-01-15T00:07:26;16.58;;;6.97;;
81056;SDS011;70563;50.084;14.468;2024-01-15T00:09:51;18.88;;;8.50;;
81056;SDS011;70563;50.084;14.468;2024-01-15T00:12:16;12.65;;;6.85;;
81056;SDS011;70563;50.084;14.468;2024-01-15T00:14:42;14.52;;;7.10;;
81056;SDS011;70563;50.084;14.468;2024-01-15T00:17:07;9.43;;;5.88;;
81056;SDS011;70563;50.084;14.468;2024-01-15T00:19:32;16.13;;;6.47;;
81056;SDS011;70563;50.084;14.468;2024-01-15T00:21:58;19.15;;;8.02;;
81056;SDS011;70563;50.084;14.468;2024-01-15T00:24:24;14.45;;;6.57;;
81056;SDS011;70563;50.084;14.468;2024-01-15T00:26:49;14.93;;;6.72;;
81056;SDS011;70563;50.084;14.468;2024-01-15T00:29:15;15.60;;;6.47;;
81056;SDS011;70563;50.084;14.468;2024-01-15T00:31:40;15.25;;;6.40;;
81056;SDS011;70563;50.084;14.468;2024-01-15T00:34:06;14.35;;;7.47;;
81056;SDS011;70563;50.084;14.468;2024-01-15T00:36:31;15.25;;;7.95;;
81056;SDS011;70563;50.084;14.468;2024-01-15T00:38:56;16.70;;;6.93;;
81056;SDS011;70563;50.084;14.468;2024-01-15T00:41:22;20.90;;;8.30;;
81056;SDS011;70563;50.084;14.468;2024-01-15T00:43:47;17.42;;;9.32;;
81056;SDS011;70563;50.084;14.468;2024-01-15T00:46:16;18.77;;;8.82;;
81056;SDS011;70563;50.084;14.468;2024-01-15T00:48:41;21.90;;;8.70;;
81056;SDS011;70563;50.084;14.468;2024-01-15T00:51:07;17.08;;;7.90;;
81056;SDS011;70563;50.084;14.468;2024-01-15T00:53:32;19.75;;;8.73;;
81056;SDS011;70563;50.084;14.468;2024-01-15T00:55:58;23.05;;;8.38;;
81056;SDS011;70563;50.084;14.468;2024-01-15T00:58:23;16.55;;;8.18;;
81056;SDS011;70563;50.084;14.468;2024-01-15T01:00:48;15.60;;;6.53;;
81056;SDS011;70563;50.084;14.468;2024-01-15T01:03:14;15.85;;;6.07;;
81056;SDS011;70563;50.084;14.468;2024-01-15T01:05:39;10.30;;;5.75;;
81056;SDS011;70563;50.084;14.468;2024-01-15T01:08:04;16.35;;;7.00;;
81056;SDS011;70563;50.084;14.468;2024-01-15T01:10:30;16.17;;;8.30;;
81056;SDS011;70563;50.084;14.468;2024-01-15T01:12:55;21.25;;;8.60;;
81056;SDS011;70563;50.084;14.468;2024-01-15T01:15:21;13.30;;;5.78;;
81056;SDS011;70563;50.084;14.468;2024-01-15T01:17:46;15.93;;;6.50;;
81056;SDS011;70563;50.084;14.468;2024-01-15T01:20:12;20.30;;;8.50;;
81056;SDS011;70563;50.084;14.468;2024-01-15T01:22:37;18.02;;;8.73;;
81056;SDS011;70563;50.084;14.468;2024-01-15T01:25:03;14.25;;;6.25;;
81056;SDS011;70563;50.084;14.468;2024-01-15T01:27:28;19.17;;;7.45;;
81056;SDS011;70563;50.084;14.468;2024-01-15T01:29:54;18.42;;;9.48;;
81056;SDS011;70563;50.084;14.468;2024-01-15T01:32:19;19.40;;;8.50;;
81056;SDS011;70563;50.084;14.468;2024-01-15T01:34:45;19.13;;;8.30;;
81056;SDS011;70563;50.084;14.468;2024-01-15T01:37:10;19.67;;;8.68;;
81056;SDS011;70563;50.084;14.468;2024-01-15T01:39:40;17.92;;;7.82;;
81056;SDS011;70563;50.084;14.468;2024-01-15T01:42:06;16.48;;;9.30;;
81056;SDS011;70563;50.084;14.468;2024-01-15T01:44:31;21.27;;;8.35;;
81056;SDS011;70563;50.084;14.468;2024-01-15T01:46:57;25.02;;;8.80;;
81056;SDS011;70563;50.084;14.468;2024-01-15T01:49:26;19.60;;;7.63;;
81056;SDS011;70563;50.084;14.468;2024-01-15T01:51:52;13.02;;;6.18;;
81056;SDS011;70563;50.084;14.468;2024-01-15T01:54:22;19.90;;;8.90;;
81056;SDS011;70563;50.084;14.468;2024-01-15T01:56:48;16.42;;;7.30;;
81056;SDS011;70563;50.084;14.468;2024-01-15T01:59:15;18.15;;;7.65;;
81056;SDS011;70563;50.084;14.468;2024-01-15T02:01:40;15.75;;;6.43;;
81056;SDS011;70563;50.084;14.468;2024-01-15T02:04:06;23.48;;;9.23;;
81056;SDS011;70563;50.084;14.468;2024-01-15T02:06:33;21.30;;;9.55;;
81056;SDS011;70563;50.084;14.468;2024-01-15T02:08:58;22.63;;;9.65;;
81056;SDS011;70563;50.084;14.468;2024-01-15T02:11:24;19.80;;;9.23;;
81056;SDS011;70563;50.084;14.468;2024-01-15T02:13:49;22.42;;;9.10;;
81056;SDS011;70563;50.084;14.468;2024-01-15T02:16:15;15.95;;;6.75;;
81056;SDS011;70563;50.084;14.468;2024-01-15T02:18:41;22.17;;;9.35;;
81056;SDS011;70563;50.084;14.468;2024-01-15T02:21:07;17.52;;;6.95;;
81056;SDS011;70563;50.084;14.468;2024-01-15T02:23:33;16.70;;;7.88;;
81056;SDS011;70563;50.084;14.468;2024-01-15T02:25:58;20.42;;;8.63;;
81056;SDS011;70563;50.084;14.468;2024-01-15T02:28:24;17.38;;;8.35;;
81056;SDS011;70563;50.084;14.468;2024-01-15T02:30:49;17.83;;;8.05;;
81056;SDS011;70563;50.084;14.468;2024-01-15T02:33:14;19.92;;;9.77;;
81056;SDS011;70563;50.084;14.468;2024-01-15T02:35:40;15.80;;;7.85;;
81056;SDS011;70563;50.084;14.468;2024-01-15T02:38:05;22.23;;;10.10;;
81056;SDS011;70563;50.084;14.468;2024-01-15T02:40:31;21.50;;;10.40;;
81056;SDS011;70563;50.084;14.468;2024-01-15T02:42:57;19.80;;;9.20;;
81056;SDS011;70563;50.084;14.468;2024-01-15T02:45:22;19.08;;;8.32;;
81056;SDS011;70563;50.084;14.468;2024-01-15T02:47:48;18.48;;;8.63;;
81056;SDS011;70563;50.084;14.468;2024-01-15T02:50:14;25.10;;;9.85;;
81056;SDS011;70563;50.084;14.468;2024-01-15T02:52:40;22.05;;;10.82;;
81056;SDS011;70563;50.084;14.468;2024-01-15T02:55:06;22.50;;;10.20;;
81056;SDS011;70563;50.084;14.468;2024-01-15T02:57:32;20.15;;;7.28;;
81056;SDS011;70563;50.084;14.468;2024-01-15T02:59:57;19.27;;;7.53;;
81056;SDS011;70563;50.084;14.468;2024-01-15T03:02:23;21.75;;;8.38;;
81056;SDS011;70563;50.084;14.468;2024-01-15T03:04:48;23.02;;;9.25;;
81056;SDS011;70563;50.084;14.468;2024-01-15T03:07:13;22.33;;;9.38;;
81056;SDS011;70563;50.084;14.468;2024-01-15T03:09:39;22.02;;;9.85;;
81056;SDS011;70563;50.084;14.468;2024-01-15T03:12:04;10.90;;;6.18;;
81056;SDS011;70563;50.084;14.468;2024-01-15T03:14:30;23.02;;;9.38;;
81056;SDS011;70563;50.084;14.468;2024-01-15T03:16:56;16.77;;;7.22;;
81056;SDS011;70563;50.084;14.468;2024-01-15T03:19:21;25.27;;;9.23;;
81056;SDS011;70563;50.084;14.468;2024-01-15T03:21:47;23.90;;;10.05;;
81056;SDS011;70563;50.084;14.468;2024-01-15T03:24:12;15.05;;;7.63;;
81056;SDS011;70563;50.084;14.468;2024-01-15T03:26:37;21.50;;;8.88;;
81056;SDS011;70563;50.084;14.468;2024-01-15T03:29:03;17.80;;;8.15;;
81056;SDS011;70563;50.084;14.468;2024-01-15T03:31:28;20.83;;;9.05;;
81056;SDS011;70563;50.084;14.468;2024-01-15T03:33:54;17.05;;;8.05;;
81056;SDS011;70563;50.084;14.468;2024-01-15T03:36:19;13.05;;;6.22;;
81056;SDS011;70563;50.084;14.468;2024-01-15T03:38:44;24.33;;;10.15;;
81056;SDS011;70563;50.084;14.468;2024-01-15T03:41:10;14.32;;;8.13;;
81056;SDS011;70563;50.084;14.468;2024-01-15T03:43:35;23.48;;;9.20;;
81056;SDS011;70563;50.084;14.468;2024-01-15T03:46:00;17.75;;;6.65;;
81056;SDS011;70563;50.084;14.468;2024-01-15T03:48:27;19.00;;;8.77;;
81056;SDS011;70563;50.084;14.468;2024-01-15T03:50:52;23.95;;;10.07;;
81056;SDS011;70563;50.084;14.468;2024-01-15T03:53:18;20.05;;;9.15;;
81056;SDS011;70563;50.084;14.468;2024-01-15T03:55:43;16.92;;;7.35;;
81056;SDS011;70563;50.084;14.468;2024-01-15T03:58:08;19.98;;;8.18;;
81056;SDS011;70563;50.084;14.468;2024-01-15T04:00:34;20.48;;;8.50;;
81056;SDS011;70563;50.084;14.468;2024-01-15T04:02:59;16.13;;;7.43;;
81056;SDS011;70563;50.084;14.468;2024-01-15T04:05:25;13.63;;;6.72;;
81056;SDS011;70563;50.084;14.468;2024-01-15T04:07:50;22.30;;;9.13;;
81056;SDS011;70563;50.084;14.468;2024-01-15T04:10:16;17.85;;;8.32;;
81056;SDS011;70563;50.084;14.468;2024-01-15T04:12:41;19.63;;;8.52;;
81056;SDS011;70563;50.084;14.468;2024-01-15T04:15:06;15.63;;;7.25;;
81056;SDS011;70563;50.084;14.468;2024-01-15T04:17:32;16.70;;;7.97;;
81056;SDS011;70563;50.084;14.468;2024-01-15T04:19:57;14.73;;;6.88;;
81056;SDS011;70563;50.084;14.468;2024-01-15T04:22:23;12.75;;;7.25;;
81056;SDS011;70563;50.084;14.468;2024-01-15T04:24:48;13.60;;;7.05;;
81056;SDS011;70563;50.084;14.468;2024-01-15T04:27:13;18.50;;;8.73;;
81056;SDS011;70563;50.084;14.468;2024-01-15T04:29:39;16.73;;;7.97;;
81056;SDS011;70563;50.084;14.468;2024-01-15T04:32:05;15.98;;;7.75;;
81056;SDS011;70563;50.084;14.468;2024-01-15T04:34:30;16.63;;;6.55;;
81056;SDS011;70563;50.084;14.468;2024-01-15T04:36:55;14.65;;;6.22;;
81056;SDS011;70563;50.084;14.468;2024-01-15T04:39:21;13.05;;;7.45;;
81056;SDS011;70563;50.084;14.468;2024-01-15T04:41:47;20.02;;;7.38;;
81056;SDS011;70563;50.084;14.468;2024-01-15T04:44:12;16.52;;;7.50;;
81056;SDS011;70563;50.084;14.468;2024-01-15T04:46:38;15.20;;;7.38;;
81056;SDS011;70563;50.084;14.468;2024-01-15T04:49:03;12.57;;;5.85;;
81056;SDS011;70563;50.084;14.468;2024-01-15T04:51:28;15.65;;;7.93;;
81056;SDS011;70563;50.084;14.468;2024-01-15T04:53:54;22.60;;;8.55;;
81056;SDS011;70563;50.084;14.468;2024-01-15T04:56:19;14.65;;;7.43;;
81056;SDS011;70563;50.084;14.468;2024-01-15T04:58:44;16.33;;;8.35;;
81056;SDS011;70563;50.084;14.468;2024-01-15T05:01:10;18.80;;;8.77;;
81056;SDS011;70563;50.084;14.468;2024-01-15T05:03:36;16.50;;;7.85;;
81056;SDS011;70563;50.084;14.468;2024-01-15T05:06:01;11.88;;;5.22;;
81056;SDS011;70563;50.084;14.468;2024-01-15T05:08:26;16.02;;;7.00;;
81056;SDS011;70563;50.084;14.468;2024-01-15T05:10:52;18.63;;;6.65;;
81056;SDS011;70563;50.084;14.468;2024-01-15T05:13:17;16.17;;;7.53;;
81056;SDS011;70563;50.084;14.468;2024-01-15T05:15:42;13.18;;;5.55;;
81056;SDS011;70563;50.084;14.468;2024-01-15T05:18:08;15.15;;;7.13;;
81056;SDS011;70563;50.084;14.468;2024-01-15T05:20:33;18.52;;;7.53;;
81056;SDS011;70563;50.084;14.468;2024-01-15T05:22:59;11.35;;;5.78;;
81056;SDS011;70563;50.084;14.468;2024-01-15T05:25:24;18.00;;;7.63;;
81056;SDS011;70563;50.084;14.468;2024-01-15T05:27:49;19.48;;;7.82;;
81056;SDS011;70563;50.084;14.468;2024-01-15T05:30:15;15.65;;;7.20;;
81056;SDS011;70563;50.084;14.468;2024-01-15T05:32:41;11.88;;;6.43;;
81056;SDS011;70563;50.084;14.468;2024-01-15T05:35:07;15.32;;;6.80;;
81056;SDS011;70563;50.084;14.468;2024-01-15T05:37:32;15.93;;;7.35;;
81056;SDS011;70563;50.084;14.468;2024-01-15T05:39:57;14.93;;;5.90;;
81056;SDS011;70563;50.084;14.468;2024-01-15T05:42:23;13.20;;;6.75;;
81056;SDS011;70563;50.084;14.468;2024-01-15T05:44:48;12.93;;;5.20;;
81056;SDS011;70563;50.084;14.468;2024-01-15T05:47:14;13.07;;;5.85;;
81056;SDS011;70563;50.084;14.468;2024-01-15T05:49:39;12.18;;;5.95;;
81056;SDS011;70563;50.084;14.468;2024-01-15T05:52:05;14.85;;;5.65;;
81056;SDS011;70563;50.084;14.468;2024-01-15T05:54:31;11.85;;;5.70;;
81056;SDS011;70563;50.084;14.468;2024-01-15T05:56:56;12.10;;;5.85;;
81056;SDS011;70563;50.084;14.468;2024-01-15T05:59:22;12.30;;;4.85;;
81056;SDS011;70563;50.084;14.468;2024-01-15T06:01:47;12.10;;;5.78;;
81056;SDS011;70563;50.084;14.468;2024-01-15T06:04:12;13.38;;;5.82;;
81056;SDS011;70563;50.084;14.468;2024-01-15T06:06:38;9.40;;;4.35;;
81056;SDS011;70563;50.084;14.468;2024-01-15T06:09:03;11.77;;;4.45;;
81056;SDS011;70563;50.084;14.468;2024-01-15T06:11:33;15.18;;;6.03;;
81056;SDS011;70563;50.084;14.468;2024-01-15T06:13:58;12.45;;;5.00;;
81056;SDS011;70563;50.084;14.468;2024-01-15T06:16:25;10.45;;;4.43;;
81056;SDS011;70563;50.084;14.468;2024-01-15T06:18:51;13.80;;;5.82;;
81056;SDS011;70563;50.084;14.468;2024-01-15T06:21:17;12.70;;;6.20;;
81056;SDS011;70563;50.084;14.468;2024-01-15T06:23:42;11.70;;;4.90;;
81056;SDS011;70563;50.084;14.468;2024-01-15T06:26:08;11.65;;;4.75;;
81056;SDS011;70563;50.084;14.468;2024-01-15T06:28:33;12.27;;;5.22;;
81056;SDS011;70563;50.084;14.468;2024-01-15T06:30:59;13.07;;;6.03;;
81056;SDS011;70563;50.084;14.468;2024-01-15T06:33:24;16.13;;;5.55;;
81056;SDS011;70563;50.084;14.468;2024-01-15T06:35:50;19.42;;;7.75;;
81056;SDS011;70563;50.084;14.468;2024-01-15T06:38:15;20.08;;;6.47;;
81056;SDS011;70563;50.084;14.468;2024-01-15T06:40:41;11.13;;;5.07;;
81056;SDS011;70563;50.084;14.468;2024-01-15T06:43:10;8.90;;;4.20;;
81056;SDS011;70563;50.084;14.468;2024-01-15T06:45:36;7.30;;;4.60;;
81056;SDS011;70563;50.084;14.468;2024-01-15T06:48:01;16.02;;;5.18;;
81056;SDS011;70563;50.084;14.468;2024-01-15T06:50:27;14.35;;;5.57;;
81056;SDS011;70563;50.084;14.468;2024-01-15T06:52:52;16.33;;;6.63;;
81056;SDS011;70563;50.084;14.468;2024-01-15T06:55:18;15.65;;;5.70;;
81056;SDS011;70563;50.084;14.468;2024-01-15T06:57:43;11.98;;;6.32;;
81056;SDS011;70563;50.084;14.468;2024-01-15T07:00:09;14.70;;;5.55;;
81056;SDS011;70563;50.084;14.468;2024-01-15T07:02:35;11.32;;;3.88;;
81056;SDS011;70563;50.084;14.468;2024-01-15T07:05:00;12.60;;;4.13;;
81056;SDS011;70563;50.084;14.468;2024-01-15T07:07:26;14.65;;;6.10;;
81056;SDS011;70563;50.084;14.468;2024-01-15T07:09:54;12.00;;;5.07;;
81056;SDS011;70563;50.084;14.468;2024-01-15T07:12:19;13.88;;;6.38;;
81056;SDS011;70563;50.084;14.468;2024-01-15T07:14:44;10.50;;;5.72;;
81056;SDS011;70563;50.084;14.468;2024-01-15T07:17:10;7.82;;;3.63;;
81056;SDS011;70563;50.084;14.468;2024-01-15T07:19:35;10.82;;;5.90;;
81056;SDS011;70563;50.084;14.468;2024-01-15T07:22:01;12.50;;;6.18;;
81056;SDS011;70563;50.084;14.468;2024-01-15T07:24:27;9.30;;;5.13;;
81056;SDS011;70563;50.084;14.468;2024-01-15T07:26:52;12.60;;;5.57;;
81056;SDS011;70563;50.084;14.468;2024-01-15T07:29:17;11.45;;;4.68;;
81056;SDS011;70563;50.084;14.468;2024-01-15T07:31:49;11.60;;;5.65;;
81056;SDS011;70563;50.084;14.468;2024-01-15T07:34:15;12.05;;;5.38;;
81056;SDS011;70563;50.084;14.468;2024-01-15T07:36:41;13.20;;;6.30;;
81056;SDS011;70563;50.084;14.468;2024-01-15T07:39:07;13.10;;;6.18;;
81056;SDS011;70563;50.084;14.468;2024-01-15T07:41:32;12.05;;;4.57;;
81056;SDS011;70563;50.084;14.468;2024-01-15T07:43:58;21.05;;;7.05;;
81056;SDS011;70563;50.084;14.468;2024-01-15T07:46:23;7.00;;;4.07;;
81056;SDS011;70563;50.084;14.468;2024-01-15T07:48:49;14.23;;;5.63;;
81056;SDS011;70563;50.084;14.468;2024-01-15T07:51:21;8.40;;;3.72;;
81056;SDS011;70563;50.084;14.468;2024-01-15T07:53:46;13.93;;;5.90;;
81056;SDS011;70563;50.084;14.468;2024-01-15T07:56:12;10.75;;;4.53;;
81056;SDS011;70563;50.084;14.468;2024-01-15T07:58:37;12.43;;;5.88;;
81056;SDS011;70563;50.084;14.468;2024-01-15T08:01:03;13.18;;;5.63;;
81056;SDS011;70563;50.084;14.468;2024-01-15T08:03:28;18.75;;;5.38;;
81056;SDS011;70563;50.084;14.468;2024-01-15T08:05:54;12.43;;;5.88;;
81056;SDS011;70563;50.084;14.468;2024-01-15T08:08:20;12.38;;;5.07;;
81056;SDS011;70563;50.084;14.468;2024-01-15T08:10:49;11.10;;;5.20;;
81056;SDS011;70563;50.084;14.468;2024-01-15T08:13:14;9.27;;;4.90;;
81056;SDS011;70563;50.084;14.468;2024-01-15T08:15:40;8.13;;;4.25;;
81056;SDS011;70563;50.084;14.468;2024-01-15T08:18:06;7.63;;;4.13;;
81056;SDS011;70563;50.084;14.468;2024-01-15T08:20:32;7.03;;;3.50;;
81056;SDS011;70563;50.084;14.468;2024-01-15T08:22:57;12.40;;;4.68;;
81056;SDS011;70563;50.084;14.468;2024-01-15T08:25:23;12.38;;;5.28;;
81056;SDS011;70563;50.084;14.468;2024-01-15T08:27:49;15.27;;;4.97;;
81056;SDS011;70563;50.084;14.468;2024-01-15T08:30:14;10.57;;;3.83;;
81056;SDS011;70563;50.084;14.468;2024-01-15T08:32:39;12.45;;;4.38;;
81056;SDS011;70563;50.084;14.468;2024-01-15T08:35:07;9.80;;;4.70;;
81056;SDS011;70563;50.084;14.468;2024-01-15T08:37:33;10.10;;;3.85;;
81056;SDS011;70563;50.084;14.468;2024-01-15T08:39:58;10.63;;;4.95;;
81056;SDS011;70563;50.084;14.468;2024-01-15T08:42:24;10.85;;;4.70;;
81056;SDS011;70563;50.084;14.468;2024-01-15T08:44:49;6.80;;;2.88;;
81056;SDS011;70563;50.084;14.468;2024-01-15T08:47:15;9.35;;;5.47;;
81056;SDS011;70563;50.084;14.468;2024-01-15T08:49:41;10.43;;;5.47;;
81056;SDS011;70563;50.084;14.468;2024-01-15T08:52:08;14.07;;;5.18;;
81056;SDS011;70563;50.084;14.468;2024-01-15T08:54:34;12.25;;;5.78;;
81056;SDS011;70563;50.084;14.468;2024-01-15T08:56:59;11.30;;;5.25;;
81056;SDS011;70563;50.084;14.468;2024-01-15T08:59:24;9.50;;;3.97;;
81056;SDS011;70563;50.084;14.468;2024-01-15T09:01:51;12.35;;;5.30;;
81056;SDS011;70563;50.084;14.468;2024-01-15T09:04:17;9.15;;;4.65;;
81056;SDS011;70563;50.084;14.468;2024-01-15T09:06:44;7.57;;;3.92;;
81056;SDS011;70563;50.084;14.468;2024-01-15T09:09:11;13.75;;;4.85;;
81056;SDS011;70563;50.084;14.468;2024-01-15T09:11:37;9.60;;;3.65;;
81056;SDS011;70563;50.084;14.468;2024-01-15T09:14:02;10.00;;;4.43;;
81056;SDS011;70563;50.084;14.468;2024-01-15T09:16:28;7.88;;;4.45;;
81056;SDS011;70563;50.084;14.468;2024-01-15T09:18:54;9.70;;;4.50;;
81056;SDS011;70563;50.084;14.468;2024-01-15T09:21:22;9.35;;;3.80;;
81056;SDS011;70563;50.084;14.468;2024-01-15T09:23:47;8.93;;;3.47;;
81056;SDS011;70563;50.084;14.468;2024-01-15T09:26:12;9.82;;;4.78;;
81056;SDS011;70563;50.084;14.468;2024-01-15T09:28:38;12.00;;;4.53;;
81056;SDS011;70563;50.084;14.468;2024-01-15T09:31:03;12.68;;;4.63;;
81056;SDS011;70563;50.084;14.468;2024-01-15T09:33:28;15.20;;;4.55;;
81056;SDS011;70563;50.084;14.468;2024-01-15T09:35:54;8.80;;;4.05;;
81056;SDS011;70563;50.084;14.468;2024-01-15T09:38:19;9.57;;;4.15;;
81056;SDS011;70563;50.084;14.468;2024-01-15T09:40:45;9.23;;;4.50;;
81056;SDS011;70563;50.084;14.468;2024-01-15T09:43:11;11.70;;;4.95;;
81056;SDS011;70563;50.084;14.468;2024-01-15T09:45:38;7.78;;;3.97;;
81056;SDS011;70563;50.084;14.468;2024-01-15T09:48:04;8.95;;;4.28;;
81056;SDS011;70563;50.084;14.468;2024-01-15T09:50:30;9.65;;;3.80;;
81056;SDS011;70563;50.084;14.468;2024-01-15T09:52:55;11.55;;;3.70;;
81056;SDS011;70563;50.084;14.468;2024-01-15T09:55:22;7.97;;;4.10;;
81056;SDS011;70563;50.084;14.468;2024-01-15T09:57:48;6.50;;;3.33;;
81056;SDS011;70563;50.084;14.468;2024-01-15T10:00:17;4.90;;;3.03;;
81056;SDS011;70563;50.084;14.468;2024-01-15T10:02:43;5.57;;;3.30;;
81056;SDS011;70563;50.084;14.468;2024-01-15T10:05:08;11.80;;;4.15;;
81056;SDS011;70563;50.084;14.468;2024-01-15T10:07:34;10.93;;;3.78;;
81056;SDS011;70563;50.084;14.468;2024-01-15T10:10:01;8.30;;;3.90;;
81056;SDS011;70563;50.084;14.468;2024-01-15T10:12:26;5.85;;;3.33;;
81056;SDS011;70563;50.084;14.468;2024-01-15T10:14:55;4.05;;;2.58;;
81056;SDS011;70563;50.084;14.468;2024-01-15T10:17:21;7.65;;;4.00;;
81056;SDS011;70563;50.084;14.468;2024-01-15T10:19:46;6.38;;;3.28;;
81056;SDS011;70563;50.084;14.468;2024-01-15T10:22:13;6.88;;;3.92;;
81056;SDS011;70563;50.084;14.468;2024-01-15T10:24:40;7.90;;;3.28;;
81056;SDS011;70563;50.084;14.468;2024-01-15T10:27:06;9.38;;;3.63;;
81056;SDS011;70563;50.084;14.468;2024-01-15T10:29:35;7.25;;;3.95;;
81056;SDS011;70563;50.084;14.468;2024-01-15T10:32:02;10.50;;;4.50;;
81056;SDS011;70563;50.084;14.468;2024-01-15T10:34:28;5.85;;;3.42;;
81056;SDS011;70563;50.084;14.468;2024-01-15T10:36:55;9.70;;;4.35;;
81056;SDS011;70563;50.084;14.468;2024-01-15T10:39:24;5.05;;;3.28;;
81056;SDS011;70563;50.084;14.468;2024-01-15T10:41:50;6.78;;;3.72;;
81056;SDS011;70563;50.084;14.468;2024-01-15T10:44:16;8.60;;;3.42;;
81056;SDS011;70563;50.084;14.468;2024-01-15T10:46:42;6.03;;;3.40;;
81056;SDS011;70563;50.084;14.468;2024-01-15T10:49:09;5.65;;;2.95;;
81056;SDS011;70563;50.084;14.468;2024-01-15T10:51:36;5.72;;;3.15;;
81056;SDS011;70563;50.084;14.468;2024-01-15T10:54:01;9.38;;;3.70;;
81056;SDS011;70563;50.084;14.468;2024-01-15T10:56:28;9.07;;;3.92;;
81056;SDS011;70563;50.084;14.468;2024-01-15T10:58:56;7.22;;;3.33;;
81056;SDS011;70563;50.084;14.468;2024-01-15T11:01:22;9.35;;;4.40;;
81056;SDS011;70563;50.084;14.468;2024-01-15T11:03:48;5.63;;;3.30;;
81056;SDS011;70563;50.084;14.468;2024-01-15T11:06:17;5.35;;;3.67;;
81056;SDS011;70563;50.084;14.468;2024-01-15T11:08:50;8.40;;;3.97;;
81056;SDS011;70563;50.084;14.468;2024-01-15T11:11:17;6.05;;;3.88;;
81056;SDS011;70563;50.084;14.468;2024-01-15T11:13:43;5.70;;;2.90;;
81056;SDS011;70563;50.084;14.468;2024-01-15T11:16:12;8.27;;;3.45;;
81056;SDS011;70563;50.084;14.468;2024-01-15T11:18:40;7.35;;;3.75;;
81056;SDS011;70563;50.084;14.468;2024-01-15T11:23:42;7.07;;;4.07;;
81056;SDS011;70563;50.084;14.468;2024-01-15T11:28:52;7.32;;;3.85;;
81056;SDS011;70563;50.084;14.468;2024-01-15T11:31:19;6.72;;;3.53;;
81056;SDS011;70563;50.084;14.468;2024-01-15T11:33:50;8.68;;;3.55;;
81056;SDS011;70563;50.084;14.468;2024-01-15T11:36:16;5.82;;;3.53;;
81056;SDS011;70563;50.084;14.468;2024-01-15T11:38:41;6.45;;;3.28;;
81056;SDS011;70563;50.084;14.468;2024-01-15T11:41:16;9.77;;;4.25;;
81056;SDS011;70563;50.084;14.468;2024-01-15T11:43:41;8.63;;;3.30;;
81056;SDS011;70563;50.084;14.468;2024-01-15T11:46:11;9.93;;;4.07;;
81056;SDS011;70563;50.084;14.468;2024-01-15T11:48:46;8.95;;;3.42;;
81056;SDS011;70563;50.084;14.468;2024-01-15T11:51:22;9.73;;;4.00;;
81056;SDS011;70563;50.084;14.468;2024-01-15T11:53:48;6.85;;;4.13;;
81056;SDS011;70563;50.084;14.468;2024-01-15T11:56:17;8.93;;;3.80;;
81056;SDS011;70563;50.084;14.468;2024-01-15T11:58:46;5.95;;;3.30;;
81056;SDS011;70563;50.084;14.468;2024-01-15T12:01:12;6.57;;;3.03;;
81056;SDS011;70563;50.084;14.468;2024-01-15T12:03:37;10.32;;;4.75;;
81056;SDS011;70563;50.084;14.468;2024-01-15T12:06:05;8.27;;;3.17;;
81056;SDS011;70563;50.084;14.468;2024-01-15T12:08:32;8.82;;;3.88;;
81056;SDS011;70563;50.084;14.468;2024-01-15T12:10:57;7.47;;;3.80;;
81056;SDS011;70563;50.084;14.468;2024-01-15T12:13:22;7.38;;;3.70;;
81056;SDS011;70563;50.084;14.468;2024-01-15T12:15:48;9.55;;;4.22;;
81056;SDS011;70563;50.084;14.468;2024-01-15T12:18:14;9.93;;;4.05;;
81056;SDS011;70563;50.084;14.468;2024-01-15T12:20:41;7.03;;;3.85;;
81056;SDS011;70563;50.084;14.468;2024-01-15T12:23:08;7.80;;;3.60;;
81056;SDS011;70563;50.084;14.468;2024-01-15T12:25:33;9.43;;;4.18;;
81056;SDS011;70563;50.084;14.468;2024-01-15T12:27:59;7.50;;;3.55;;
81056;SDS011;70563;50.084;14.468;2024-01-15T12:30:26;7.70;;;4.38;;
81056;SDS011;70563;50.084;14.468;2024-01-15T12:32:52;5.30;;;3.03;;
81056;SDS011;70563;50.084;14.468;2024-01-15T12:35:17;8.25;;;4.15;;
81056;SDS011;70563;50.084;14.468;2024-01-15T12:37:43;5.57;;;3.55;;
81056;SDS011;70563;50.084;14.468;2024-01-15T12:40:12;7.00;;;3.35;;
81056;SDS011;70563;50.084;14.468;2024-01-15T12:42:39;9.52;;;4.82;;
81056;SDS011;70563;50.084;14.468;2024-01-15T12:45:05;5.38;;;3.28;;
81056;SDS011;70563;50.084;14.468;2024-01-15T12:47:32;19.63;;;3.58;;
81056;SDS011;70563;50.084;14.468;2024-01-15T12:49:58;8.85;;;4.25;;
81056;SDS011;70563;50.084;14.468;2024-01-15T12:52:27;11.02;;;5.25;;
81056;SDS011;70563;50.084;14.468;2024-01-15T12:54:53;9.52;;;4.05;;
81056;SDS011;70563;50.084;14.468;2024-01-15T12:57:19;10.20;;;3.88;;
81056;SDS011;70563;50.084;14.468;2024-01-15T12:59:44;7.22;;;3.60;;
81056;SDS011;70563;50.084;14.468;2024-01-15T13:02:11;8.93;;;3.30;;
81056;SDS011;70563;50.084;14.468;2024-01-15T13:04:37;5.13;;;3.13;;
81056;SDS011;70563;50.084;14.468;2024-01-15T13:07:02;7.00;;;3.05;;
81056;SDS011;70563;50.084;14.468;2024-01-15T13:09:28;9.02;;;3.70;;
81056;SDS011;70563;50.084;14.468;2024-01-15T13:11:54;6.80;;;3.85;;
81056;SDS011;70563;50.084;14.468;2024-01-15T13:14:20;5.43;;;2.67;;
81056;SDS011;70563;50.084;14.468;2024-01-15T13:16:45;8.23;;;3.83;;
81056;SDS011;70563;50.084;14.468;2024-01-15T13:19:11;6.20;;;3.63;;
81056;SDS011;70563;50.084;14.468;2024-01-15T13:21:38;6.13;;;2.92;;
81056;SDS011;70563;50.084;14.468;2024-01-15T13:24:04;7.28;;;3.88;;
81056;SDS011;70563;50.084;14.468;2024-01-15T13:26:31;8.65;;;3.17;;
81056;SDS011;70563;50.084;14.468;2024-01-15T13:29:01;6.03;;;3.13;;
81056;SDS011;70563;50.084;14.468;2024-01-15T13:31:27;6.25;;;3.38;;
81056;SDS011;70563;50.084;14.468;2024-01-15T13:33:53;8.45;;;3.70;;
81056;SDS011;70563;50.084;14.468;2024-01-15T13:36:18;7.18;;;3.63;;
81056;SDS011;70563;50.084;14.468;2024-01-15T13:38:43;6.45;;;3.25;;
81056;SDS011;70563;50.084;14.468;2024-01-15T13:41:09;6.25;;;3.10;;
81056;SDS011;70563;50.084;14.468;2024-01-15T13:43:34;6.07;;;2.20;;
81056;SDS011;70563;50.084;14.468;2024-01-15T13:46:00;7.22;;;3.33;;
81056;SDS011;70563;50.084;14.468;2024-01-15T13:48:25;9.23;;;3.92;;
81056;SDS011;70563;50.084;14.468;2024-01-15T13:50:51;7.05;;;3.28;;
81056;SDS011;70563;50.084;14.468;2024-01-15T13:53:17;6.72;;;3.03;;
81056;SDS011;70563;50.084;14.468;2024-01-15T13:55:44;5.57;;;3.45;;
81056;SDS011;70563;50.084;14.468;2024-01-15T13:58:09;7.75;;;2.78;;
81056;SDS011;70563;50.084;14.468;2024-01-15T14:00:35;9.43;;;2.92;;
81056;SDS011;70563;50.084;14.468;2024-01-15T14:03:00;5.30;;;2.42;;
81056;SDS011;70563;50.084;14.468;2024-01-15T14:05:26;5.97;;;2.80;;
81056;SDS011;70563;50.084;14.468;2024-01-15T14:07:51;4.20;;;2.13;;
81056;SDS011;70563;50.084;14.468;2024-01-15T14:10:17;3.58;;;2.45;;
81056;SDS011;70563;50.084;14.468;2024-01-15T14:12:42;5.57;;;2.40;;
81056;SDS011;70563;50.084;14.468;2024-01-15T14:15:08;10.90;;;3.05;;
81056;SDS011;70563;50.084;14.468;2024-01-15T14:17:34;8.07;;;2.70;;
81056;SDS011;70563;50.084;14.468;2024-01-15T14:19:59;4.65;;;2.10;;
81056;SDS011;70563;50.084;14.468;2024-01-15T14:22:25;3.45;;;1.73;;